Time;durP1;ratioP1;P1;durP2;ratioP2;P2;SDS_P1;SDS_P2;PMS_P1;PMS_P2;Temp;Humidity;BMP_temperature;BMP_pressure;BME280_temperature;BME280_humidity;BME280_pressure;Samples;Min_cycle;Max_cycle;Signal;HPM_P1;HPM_P2
2021/04/29 00:00:53;;;;;;;2.85;1.40;;;20.30;27.00;;;;;;5094513;28;20028;-66
2021/04/29 00:03:19;;;;;;;2.55;1.30;;;20.30;27.00;;;;;;5094827;28;20506;-66
2021/04/29 00:05:44;;;;;;;2.97;1.15;;;20.30;27.00;;;;;;5094699;28;20023;-66
2021/04/29 00:08:10;;;;;;;4.40;1.50;;;20.30;27.00;;;;;;5094184;28;20036;-66
2021/04/29 00:10:35;;;;;;;3.47;1.20;;;20.30;27.00;;;;;;5094188;28;20424;-66
2021/04/29 00:13:01;;;;;;;3.28;1.23;;;20.30;27.10;;;;;;5094382;28;20024;-66
2021/04/29 00:15:27;;;;;;;2.30;1.00;;;20.30;27.10;;;;;;5094443;28;20027;-66
2021/04/29 00:17:52;;;;;;;2.53;1.00;;;20.20;27.10;;;;;;5094099;28;20510;-66
2021/04/29 00:20:21;;;;;;;5.97;1.20;;;20.30;27.10;;;;;;5094392;28;20024;-66
2021/04/29 00:22:47;;;;;;;2.33;1.25;;;20.30;27.10;;;;;;5094076;28;20048;-66
2021/04/29 00:25:13;;;;;;;2.85;1.02;;;20.20;27.10;;;;;;5093093;28;20032;-66
2021/04/29 00:27:39;;;;;;;2.85;1.35;;;20.20;27.10;;;;;;5094198;28;20044;-65
2021/04/29 00:30:07;;;;;;;1.45;0.80;;;20.30;27.10;;;;;;5094446;28;20027;-66
2021/04/29 00:32:33;;;;;;;4.85;1.42;;;20.20;27.20;;;;;;5094374;28;20117;-66
2021/04/29 00:35:00;;;;;;;3.15;1.38;;;20.20;27.20;;;;;;5094226;28;20460;-66
2021/04/29 00:37:26;;;;;;;3.15;1.45;;;20.20;27.20;;;;;;5094099;28;20020;-66
2021/04/29 00:39:51;;;;;;;3.65;1.38;;;20.20;27.20;;;;;;5094118;28;20028;-66
2021/04/29 00:42:17;;;;;;;3.15;1.10;;;20.20;27.20;;;;;;5094131;28;20491;-66
2021/04/29 00:44:43;;;;;;;3.42;1.38;;;20.20;27.20;;;;;;5094007;28;20020;-66
2021/04/29 00:47:09;;;;;;;3.92;1.70;;;20.20;27.20;;;;;;5093753;28;20609;-66
2021/04/29 00:49:35;;;;;;;2.75;1.23;;;20.20;27.30;;;;;;5094086;28;20565;-66
2021/04/29 00:52:01;;;;;;;3.28;1.45;;;20.20;27.30;;;;;;5094082;28;20093;-66
2021/04/29 00:54:26;;;;;;;2.95;1.48;;;20.20;27.30;;;;;;5094004;28;20028;-66
2021/04/29 00:56:52;;;;;;;4.80;1.50;;;20.20;27.30;;;;;;5093585;28;20031;-66
2021/04/29 00:59:18;;;;;;;4.05;1.55;;;20.20;27.30;;;;;;5093913;28;20433;-66
2021/04/29 01:01:47;;;;;;;2.78;1.20;;;20.20;27.40;;;;;;5094062;28;20081;-66
2021/04/29 01:04:23;;;;;;;1.92;1.20;;;20.20;27.40;;;;;;5095468;28;20392;-66
2021/04/29 01:06:59;;;;;;;5.28;1.60;;;20.20;27.40;;;;;;5093891;28;20118;-66
2021/04/29 01:09:45;;;;;;;2.67;1.10;;;20.20;27.40;;;;;;5093541;28;20076;-66
2021/04/29 01:12:18;;;;;;;4.10;1.52;;;20.10;27.40;;;;;;5093424;28;20024;-66
2021/04/29 01:14:46;;;;;;;3.40;1.42;;;20.10;27.40;;;;;;5092055;28;20020;-66
2021/04/29 01:17:13;;;;;;;4.00;1.50;;;20.10;27.40;;;;;;5092540;28;20024;-66
2021/04/29 01:19:45;;;;;;;2.33;1.20;;;20.10;27.40;;;;;;5093934;28;20056;-66
2021/04/29 01:22:12;;;;;;;2.80;1.10;;;20.10;27.50;;;;;;5093839;28;20036;-66
2021/04/29 01:24:59;;;;;;;3.00;1.40;;;20.10;27.50;;;;;;5094093;28;20108;-66
2021/04/29 01:27:26;;;;;;;4.97;1.30;;;20.10;27.50;;;;;;5093633;28;20123;-66
2021/04/29 01:29:52;;;;;;;3.38;1.50;;;20.10;27.50;;;;;;5093209;28;20413;-66
2021/04/29 01:32:18;;;;;;;2.88;1.38;;;20.10;27.50;;;;;;5093293;28;20115;-66
2021/04/29 01:34:44;;;;;;;3.97;1.40;;;20.10;27.60;;;;;;5093583;28;20036;-66
2021/04/29 01:37:10;;;;;;;2.45;1.25;;;20.10;27.50;;;;;;5093051;28;20023;-66
2021/04/29 01:39:37;;;;;;;3.33;1.50;;;20.10;27.60;;;;;;5093468;28;20028;-66
2021/04/29 01:42:03;;;;;;;4.25;1.38;;;20.10;27.60;;;;;;5093136;28;20042;-66
2021/04/29 01:44:29;;;;;;;3.97;1.38;;;20.10;27.60;;;;;;5093163;28;20020;-66
2021/04/29 01:46:57;;;;;;;4.20;1.80;;;20.10;27.60;;;;;;5093254;28;20059;-66
2021/04/29 01:49:24;;;;;;;3.88;1.77;;;20.00;27.60;;;;;;5093585;28;20028;-66
2021/04/29 01:51:50;;;;;;;4.20;1.70;;;20.10;27.60;;;;;;5093295;28;20036;-66
2021/04/29 01:54:17;;;;;;;4.00;1.58;;;20.10;27.60;;;;;;5093117;28;20103;-66
2021/04/29 01:56:43;;;;;;;4.30;1.70;;;20.10;27.70;;;;;;5093121;28;20028;-66
2021/04/29 01:59:09;;;;;;;3.33;1.60;;;20.10;27.70;;;;;;5093348;28;20016;-66
2021/04/29 02:01:36;;;;;;;4.00;1.70;;;20.10;27.70;;;;;;5096714;28;20076;-66
2021/04/29 02:04:03;;;;;;;4.10;1.60;;;20.10;27.70;;;;;;5096839;28;20077;-66
2021/04/29 02:06:28;;;;;;;3.60;1.55;;;20.10;27.70;;;;;;5096886;28;20032;-66
2021/04/29 02:08:54;;;;;;;4.05;1.80;;;20.00;27.70;;;;;;5097029;28;20050;-65
2021/04/29 02:11:19;;;;;;;5.47;1.42;;;20.10;27.80;;;;;;5096996;28;20035;-66
2021/04/29 02:13:50;;;;;;;3.30;1.52;;;20.00;27.80;;;;;;5096688;28;20110;-65
2021/04/29 02:16:28;;;;;;;3.47;1.65;;;20.00;27.80;;;;;;5096957;28;20388;-66
2021/04/29 02:18:54;;;;;;;3.90;1.42;;;20.00;27.80;;;;;;5096957;28;20028;-66
2021/04/29 02:21:22;;;;;;;4.47;1.65;;;20.00;27.80;;;;;;5096259;28;20020;-66
2021/04/29 02:23:49;;;;;;;3.33;1.40;;;20.00;27.90;;;;;;5096392;28;20047;-66
2021/04/29 02:26:17;;;;;;;2.90;1.50;;;20.00;27.80;;;;;;5096708;28;20563;-66
2021/04/29 02:28:44;;;;;;;3.58;1.70;;;20.00;27.90;;;;;;5096657;28;20362;-66
2021/04/29 02:31:10;;;;;;;3.78;1.65;;;20.00;27.90;;;;;;5096509;28;20368;-66
2021/04/29 02:33:37;;;;;;;3.05;1.40;;;20.00;27.90;;;;;;5096608;28;20020;-66
2021/04/29 02:36:05;;;;;;;3.47;1.38;;;20.00;27.90;;;;;;5096487;28;20032;-66
2021/04/29 02:38:32;;;;;;;3.70;1.70;;;20.00;27.90;;;;;;5096362;28;20031;-66
2021/04/29 02:40:58;;;;;;;3.05;1.48;;;20.00;27.90;;;;;;5096114;28;20388;-66
2021/04/29 02:43:24;;;;;;;4.93;1.90;;;20.00;27.90;;;;;;5096273;28;20035;-67
2021/04/29 02:45:50;;;;;;;3.75;1.70;;;20.00;28.00;;;;;;5096413;28;20031;-66
2021/04/29 02:48:17;;;;;;;3.42;1.58;;;20.00;28.00;;;;;;5096239;28;20430;-66
2021/04/29 02:50:44;;;;;;;3.72;1.75;;;20.00;28.00;;;;;;5096356;28;20115;-66
2021/04/29 02:53:14;;;;;;;4.57;1.90;;;20.00;28.00;;;;;;5096769;28;20024;-66
2021/04/29 02:55:42;;;;;;;3.70;1.80;;;20.00;28.00;;;;;;5096245;28;20016;-66
2021/04/29 02:58:09;;;;;;;4.20;1.65;;;20.00;28.10;;;;;;5095969;28;20016;-66
2021/04/29 03:00:36;;;;;;;3.67;1.70;;;20.00;28.10;;;;;;5096217;28;20020;-66
2021/04/29 03:03:02;;;;;;;3.65;1.77;;;20.00;28.10;;;;;;5095777;28;20020;-66
2021/04/29 03:05:28;;;;;;;4.65;1.80;;;20.00;28.10;;;;;;5095633;28;20032;-66
2021/04/29 03:07:54;;;;;;;4.45;1.80;;;20.00;28.10;;;;;;5095966;28;20031;-66
2021/04/29 03:10:20;;;;;;;5.25;2.03;;;20.00;28.20;;;;;;5095863;28;20070;-66
2021/04/29 03:12:46;;;;;;;4.40;1.90;;;20.00;28.20;;;;;;5096064;28;20031;-66
2021/04/29 03:15:13;;;;;;;5.78;2.55;;;20.00;28.20;;;;;;5095935;28;20020;-66
2021/04/29 03:17:39;;;;;;;3.65;1.90;;;20.00;28.20;;;;;;5095717;28;20130;-65
2021/04/29 03:20:06;;;;;;;4.13;1.63;;;20.00;28.20;;;;;;5095969;28;20028;-66
2021/04/29 03:22:32;;;;;;;5.28;2.10;;;20.00;28.20;;;;;;5095029;28;20040;-66
2021/04/29 03:24:57;;;;;;;4.97;1.83;;;20.00;28.30;;;;;;5095501;28;20027;-66
2021/04/29 03:27:23;;;;;;;4.60;1.90;;;19.90;28.30;;;;;;5095645;28;20114;-66
2021/04/29 03:29:50;;;;;;;4.82;2.08;;;20.00;28.30;;;;;;5095789;28;20024;-66
2021/04/29 03:32:15;;;;;;;4.05;2.00;;;19.90;28.30;;;;;;5095788;28;20028;-66
2021/04/29 03:34:41;;;;;;;4.65;2.03;;;19.90;28.40;;;;;;5095522;28;20360;-66
2021/04/29 03:37:06;;;;;;;4.85;2.22;;;19.90;28.40;;;;;;5095170;28;20020;-65
2021/04/29 03:39:32;;;;;;;4.60;2.05;;;19.90;28.30;;;;;;5095008;28;20053;-67
2021/04/29 03:41:57;;;;;;;3.80;1.70;;;19.90;28.40;;;;;;5095114;28;20024;-66
2021/04/29 03:44:23;;;;;;;3.53;1.90;;;19.90;28.40;;;;;;5093773;28;20028;-66
2021/04/29 03:46:49;;;;;;;4.78;2.10;;;19.90;28.40;;;;;;5095003;28;20031;-66
2021/04/29 03:49:15;;;;;;;4.53;2.22;;;19.90;28.40;;;;;;5095220;28;20384;-66
2021/04/29 03:51:41;;;;;;;3.97;2.10;;;19.90;28.40;;;;;;5094739;28;20020;-66
2021/04/29 03:54:06;;;;;;;5.50;2.40;;;19.90;28.40;;;;;;5094844;28;20024;-66
2021/04/29 03:56:32;;;;;;;5.28;2.28;;;19.90;28.50;;;;;;5095008;28;20203;-66
2021/04/29 03:58:57;;;;;;;4.22;2.13;;;19.90;28.50;;;;;;5094736;28;20145;-66
2021/04/29 04:01:23;;;;;;;4.45;1.98;;;19.90;28.50;;;;;;5094537;28;20391;-66
2021/04/29 04:03:48;;;;;;;5.63;2.33;;;19.90;28.50;;;;;;5094601;28;20047;-66
2021/04/29 04:06:14;;;;;;;4.43;2.13;;;19.90;28.60;;;;;;5094403;28;20031;-66
2021/04/29 04:08:39;;;;;;;4.93;2.20;;;19.90;28.60;;;;;;5093270;28;20027;-66
2021/04/29 04:11:05;;;;;;;4.72;2.00;;;19.90;28.50;;;;;;5094795;28;20012;-66
2021/04/29 04:13:31;;;;;;;4.63;2.20;;;19.90;28.60;;;;;;5094506;28;20384;-66
2021/04/29 04:15:56;;;;;;;3.65;1.70;;;19.90;28.70;;;;;;5094681;28;20074;-66
2021/04/29 04:18:22;;;;;;;4.50;2.35;;;19.90;28.60;;;;;;5094391;28;20510;-66
2021/04/29 04:20:47;;;;;;;5.35;2.42;;;19.90;28.60;;;;;;5094195;28;20063;-66
2021/04/29 04:23:13;;;;;;;5.22;2.00;;;19.90;28.60;;;;;;5093659;28;20044;-66
2021/04/29 04:25:39;;;;;;;4.50;2.20;;;19.90;28.60;;;;;;5094362;28;20067;-66
2021/04/29 04:28:04;;;;;;;5.28;2.50;;;19.90;28.60;;;;;;5094351;28;20056;-66
2021/04/29 04:30:30;;;;;;;5.53;2.63;;;19.90;28.50;;;;;;5094223;28;20491;-66
2021/04/29 04:32:56;;;;;;;5.15;2.53;;;19.90;28.60;;;;;;5094213;28;20024;-66
2021/04/29 04:35:22;;;;;;;4.22;2.15;;;19.90;28.60;;;;;;5094166;28;20060;-64
2021/04/29 04:37:48;;;;;;;5.40;2.55;;;19.90;28.60;;;;;;5094070;28;20109;-67
2021/04/29 04:40:14;;;;;;;4.25;2.20;;;19.90;28.60;;;;;;5094090;28;20020;-66
2021/04/29 04:42:40;;;;;;;4.32;2.10;;;19.90;28.60;;;;;;5093962;28;20042;-66
2021/04/29 04:45:07;;;;;;;4.35;2.17;;;20.00;28.60;;;;;;5093953;28;20044;-66
2021/04/29 04:47:33;;;;;;;5.30;2.42;;;20.00;28.60;;;;;;5094112;28;20466;-66
2021/04/29 04:49:58;;;;;;;5.10;2.35;;;19.90;28.70;;;;;;5093759;28;20056;-66
2021/04/29 04:52:24;;;;;;;4.90;2.30;;;19.90;28.60;;;;;;5094018;28;20094;-66
2021/04/29 04:54:51;;;;;;;5.65;2.75;;;19.90;28.70;;;;;;5093845;28;20022;-66
2021/04/29 04:57:16;;;;;;;3.83;1.98;;;20.00;28.70;;;;;;5093274;28;20024;-66
2021/04/29 04:59:42;;;;;;;5.00;2.53;;;20.00;28.70;;;;;;5093541;28;20050;-66
2021/04/29 05:02:08;;;;;;;4.97;2.53;;;20.00;28.70;;;;;;5093864;28;20384;-66
2021/04/29 05:04:35;;;;;;;4.68;2.33;;;20.00;28.70;;;;;;5093883;28;20257;-65
2021/04/29 05:07:03;;;;;;;4.97;2.40;;;20.00;28.70;;;;;;5093498;28;20032;-66
2021/04/29 05:09:29;;;;;;;4.28;2.20;;;20.00;28.80;;;;;;5093500;28;20499;-66
2021/04/29 05:11:54;;;;;;;6.45;2.65;;;20.00;28.80;;;;;;5093927;28;20051;-66
2021/04/29 05:14:20;;;;;;;5.03;2.30;;;20.00;28.80;;;;;;5093661;28;20028;-66
2021/04/29 05:16:46;;;;;;;6.15;2.30;;;20.00;28.80;;;;;;5093778;28;20027;-66
2021/04/29 05:19:11;;;;;;;7.03;2.45;;;20.00;28.80;;;;;;5092085;28;20073;-66
2021/04/29 05:21:38;;;;;;;5.05;2.50;;;20.00;28.80;;;;;;5093491;28;20028;-66
2021/04/29 05:24:03;;;;;;;5.95;2.45;;;20.00;28.90;;;;;;5093137;28;20044;-66
2021/04/29 05:26:29;;;;;;;5.00;2.55;;;20.00;28.90;;;;;;5093534;28;20447;-66
2021/04/29 05:28:55;;;;;;;5.65;2.67;;;20.00;28.90;;;;;;5093442;28;20420;-66
2021/04/29 05:31:20;;;;;;;5.10;2.40;;;20.00;28.90;;;;;;5093433;28;20020;-66
2021/04/29 05:33:46;;;;;;;4.88;2.40;;;20.00;29.00;;;;;;5093455;28;20059;-65
2021/04/29 05:36:11;;;;;;;4.93;2.45;;;20.00;29.00;;;;;;5097315;28;20066;-65
2021/04/29 05:38:37;;;;;;;5.32;2.50;;;20.00;29.00;;;;;;5097884;28;20032;-65
2021/04/29 05:41:03;;;;;;;5.00;2.40;;;19.90;29.10;;;;;;5097708;28;20031;-65
2021/04/29 05:43:28;;;;;;;4.68;2.53;;;20.00;29.10;;;;;;5097792;28;20097;-65
2021/04/29 05:45:54;;;;;;;5.88;2.80;;;20.00;29.10;;;;;;5097536;28;20115;-65
2021/04/29 05:48:19;;;;;;;5.63;2.45;;;20.00;29.10;;;;;;5097643;28;20476;-65
2021/04/29 05:50:45;;;;;;;5.47;2.60;;;20.00;29.20;;;;;;5097156;28;20054;-65
2021/04/29 05:53:10;;;;;;;4.55;2.38;;;20.00;29.20;;;;;;5097286;28;20028;-64
2021/04/29 05:55:36;;;;;;;5.00;2.55;;;20.00;29.20;;;;;;5097184;28;20020;-64
2021/04/29 05:58:01;;;;;;;5.05;2.53;;;20.00;29.10;;;;;;5097333;28;20169;-65
2021/04/29 06:00:27;;;;;;;5.95;2.55;;;20.00;29.10;;;;;;5096259;28;20016;-65
2021/04/29 06:02:55;;;;;;;6.20;2.50;;;20.00;29.10;;;;;;5096854;28;20028;-65
2021/04/29 06:05:21;;;;;;;4.20;2.03;;;20.00;29.10;;;;;;5095876;28;20020;-65
2021/04/29 06:08:00;;;;;;;4.90;2.38;;;20.00;29.10;;;;;;5097244;28;20028;-65
2021/04/29 06:10:27;;;;;;;6.50;2.58;;;20.00;29.10;;;;;;5096972;28;20490;-65
2021/04/29 06:12:53;;;;;;;5.82;2.60;;;20.00;29.10;;;;;;5096585;28;20036;-65
2021/04/29 06:15:19;;;;;;;5.10;2.42;;;20.00;29.20;;;;;;5096576;28;20084;-65
2021/04/29 06:17:45;;;;;;;5.53;2.63;;;20.00;29.10;;;;;;5094958;28;20379;-65
2021/04/29 06:20:12;;;;;;;6.60;2.58;;;20.00;29.20;;;;;;5096675;28;20529;-65
2021/04/29 06:22:38;;;;;;;4.65;2.50;;;20.00;29.30;;;;;;5096355;28;20079;-65
2021/04/29 06:25:08;;;;;;;4.53;2.00;;;20.00;29.20;;;;;;5096503;28;20108;-65
2021/04/29 06:27:34;;;;;;;6.20;2.95;;;20.00;29.20;;;;;;5096167;28;20039;-65
2021/04/29 06:30:00;;;;;;;5.32;2.53;;;20.10;29.20;;;;;;5096678;28;20411;-65
2021/04/29 06:32:26;;;;;;;5.03;2.33;;;20.00;29.20;;;;;;5105354;28;20031;-65
2021/04/29 06:34:51;;;;;;;5.40;2.58;;;20.00;29.20;;;;;;5103028;28;20046;-65
2021/04/29 06:37:17;;;;;;;5.05;2.45;;;20.10;29.20;;;;;;5096642;28;20028;-65
2021/04/29 06:39:43;;;;;;;5.60;2.42;;;20.30;29.00;;;;;;5096399;28;20071;-65
2021/04/29 06:42:09;;;;;;;4.45;2.10;;;20.20;29.00;;;;;;5096538;28;20434;-65
2021/04/29 06:44:34;;;;;;;4.28;2.42;;;20.20;29.10;;;;;;5096183;28;20460;-65
2021/04/29 06:47:00;;;;;;;5.50;2.53;;;20.10;29.20;;;;;;5095930;28;20032;-65
2021/04/29 06:49:27;;;;;;;5.05;2.47;;;20.20;29.20;;;;;;5096414;28;20020;-66
2021/04/29 06:51:52;;;;;;;4.90;2.33;;;20.20;29.10;;;;;;5095758;28;20031;-65
2021/04/29 06:54:18;;;;;;;4.75;2.22;;;20.20;29.10;;;;;;5095833;28;20024;-65
2021/04/29 06:56:44;;;;;;;6.00;2.10;;;20.20;29.10;;;;;;5095745;28;20038;-65
2021/04/29 06:59:09;;;;;;;5.63;2.30;;;20.20;29.10;;;;;;5094382;28;20023;-66
2021/04/29 07:01:35;;;;;;;6.13;2.63;;;20.20;29.20;;;;;;5098055;28;20106;-65
2021/04/29 07:04:00;;;;;;;5.43;2.70;;;20.20;29.20;;;;;;5103552;28;20027;-64
2021/04/29 07:06:26;;;;;;;4.63;2.30;;;20.20;29.20;;;;;;5114982;28;20024;-66
2021/04/29 07:08:52;;;;;;;5.25;2.65;;;20.20;29.40;;;;;;5115105;28;20039;-63
2021/04/29 07:11:17;;;;;;;5.40;2.33;;;20.30;29.40;;;;;;5114720;28;20024;-66
2021/04/29 07:13:43;;;;;;;4.90;2.47;;;20.20;29.30;;;;;;5114538;28;20484;-65
2021/04/29 07:16:09;;;;;;;5.50;2.60;;;20.20;29.30;;;;;;5114982;28;20016;-64
2021/04/29 07:18:34;;;;;;;4.50;2.25;;;20.30;29.20;;;;;;5114906;28;20394;-63
2021/04/29 07:21:00;;;;;;;4.45;2.17;;;20.30;29.20;;;;;;5115073;28;20080;-63
2021/04/29 07:23:26;;;;;;;4.85;2.20;;;20.30;29.20;;;;;;5113835;28;20495;-64
2021/04/29 07:25:51;;;;;;;4.82;2.38;;;20.30;29.30;;;;;;5115025;28;20024;-65
2021/04/29 07:28:17;;;;;;;3.95;1.98;;;20.30;29.30;;;;;;5113451;28;20038;-66
2021/04/29 07:30:44;;;;;;;6.15;2.40;;;20.30;29.30;;;;;;5114828;28;20031;-66
2021/04/29 07:33:11;;;;;;;4.65;2.20;;;20.30;29.30;;;;;;5114092;28;20028;-65
2021/04/29 07:35:40;;;;;;;4.32;2.17;;;20.30;29.30;;;;;;5115228;28;20052;-63
2021/04/29 07:38:06;;;;;;;6.47;2.67;;;20.30;29.30;;;;;;5114963;27;20023;-63
2021/04/29 07:40:33;;;;;;;4.43;2.45;;;20.40;29.30;;;;;;5115032;28;20387;-64
2021/04/29 07:42:59;;;;;;;6.32;2.50;;;20.40;29.40;;;;;;5113996;28;20035;-65
2021/04/29 07:45:26;;;;;;;5.13;2.60;;;20.40;29.40;;;;;;5114898;28;20386;-63
2021/04/29 07:47:51;;;;;;;5.70;2.35;;;20.40;29.60;;;;;;5114374;28;20027;-66
2021/04/29 07:50:17;;;;;;;4.32;2.30;;;20.40;29.50;;;;;;5115006;28;20043;-67
2021/04/29 07:52:43;;;;;;;5.30;2.33;;;20.40;29.50;;;;;;5112916;28;20080;-67
2021/04/29 07:55:11;;;;;;;7.20;2.83;;;20.40;29.50;;;;;;5114257;28;20024;-68
2021/04/29 07:57:37;;;;;;;4.07;2.15;;;20.40;29.50;;;;;;5112651;28;20115;-66
2021/04/29 08:00:08;;;;;;;7.05;2.55;;;20.40;29.50;;;;;;5112415;28;20486;-67
2021/04/29 08:02:34;;;;;;;8.27;2.20;;;20.40;29.50;;;;;;5115179;28;20467;-66
2021/04/29 08:05:00;;;;;;;5.40;2.35;;;20.40;29.40;;;;;;5114292;28;20019;-66
2021/04/29 08:07:26;;;;;;;4.10;2.03;;;20.40;29.50;;;;;;5114304;28;20054;-67
2021/04/29 08:09:52;;;;;;;5.72;2.42;;;20.40;29.50;;;;;;5115271;28;20041;-66
2021/04/29 08:12:18;;;;;;;6.07;2.42;;;20.40;29.50;;;;;;5115144;28;20023;-67
2021/04/29 08:14:44;;;;;;;5.70;2.30;;;20.40;29.50;;;;;;5114902;28;20455;-67
2021/04/29 08:17:09;;;;;;;4.97;2.25;;;20.40;29.50;;;;;;5115607;28;20462;-68
2021/04/29 08:19:35;;;;;;;4.93;2.25;;;20.40;29.50;;;;;;5115178;28;20035;-67
2021/04/29 08:22:02;;;;;;;6.55;2.30;;;20.40;29.50;;;;;;5114905;28;20487;-66
2021/04/29 08:24:27;;;;;;;4.20;2.22;;;20.40;29.50;;;;;;5114969;28;20031;-66
2021/04/29 08:26:53;;;;;;;5.05;2.13;;;20.40;29.60;;;;;;5114512;28;20131;-66
2021/04/29 08:29:18;;;;;;;5.63;2.15;;;20.40;29.60;;;;;;5114752;28;20432;-66
2021/04/29 08:31:44;;;;;;;5.82;2.60;;;20.40;29.60;;;;;;5114558;28;20023;-66
2021/04/29 08:34:09;;;;;;;4.38;2.10;;;20.30;29.60;;;;;;5114485;28;20020;-66
2021/04/29 08:36:35;;;;;;;3.58;2.03;;;20.40;29.70;;;;;;5113251;28;20402;-66
2021/04/29 08:39:03;;;;;;;6.97;2.53;;;20.30;29.60;;;;;;5114363;28;20467;-66
2021/04/29 08:41:30;;;;;;;6.05;2.42;;;20.30;30.00;;;;;;5112953;28;20486;-65
2021/04/29 08:43:55;;;;;;;5.82;2.55;;;20.30;29.80;;;;;;5113583;28;20023;-65
2021/04/29 08:46:21;;;;;;;4.88;2.25;;;20.30;29.80;;;;;;5114232;28;20076;-63
2021/04/29 08:48:52;;;;;;;5.90;2.03;;;20.40;29.80;;;;;;5112447;28;20475;-65
2021/04/29 08:51:18;;;;;;;4.93;1.95;;;20.40;29.80;;;;;;5113359;28;20055;-65
2021/04/29 08:53:45;;;;;;;5.13;2.55;;;20.30;29.80;;;;;;5113204;28;20027;-67
2021/04/29 08:56:11;;;;;;;4.82;2.25;;;20.40;29.80;;;;;;5107168;28;20024;-66
2021/04/29 08:58:37;;;;;;;3.92;2.00;;;20.40;29.80;;;;;;5090457;28;20020;-66
2021/04/29 09:01:05;;;;;;;6.88;2.35;;;20.30;29.80;;;;;;5091841;28;20032;-66
2021/04/29 09:03:32;;;;;;;5.60;2.45;;;20.40;29.90;;;;;;5092750;28;20116;-65
2021/04/29 09:05:59;;;;;;;5.40;2.15;;;20.40;30.10;;;;;;5093103;28;20056;-68
2021/04/29 09:08:30;;;;;;;5.38;2.20;;;20.40;30.00;;;;;;5091176;28;20043;-67
2021/04/29 09:11:12;;;;;;;5.63;2.30;;;20.40;30.00;;;;;;5094031;28;20020;-66
2021/04/29 09:13:39;;;;;;;4.88;2.20;;;20.40;30.00;;;;;;5094164;28;20436;-67
2021/04/29 09:16:10;;;;;;;5.40;2.47;;;20.40;30.10;;;;;;5075798;28;20031;-67
2021/04/29 09:18:37;;;;;;;5.43;2.17;;;20.30;30.10;;;;;;5093653;28;20119;-68
2021/04/29 09:21:14;;;;;;;6.97;2.05;;;20.40;30.10;;;;;;5093743;28;20073;-67
2021/04/29 09:23:45;;;;;;;5.15;2.20;;;20.40;30.20;;;;;;5093907;28;20050;-68
2021/04/29 09:26:16;;;;;;;5.70;2.53;;;20.40;30.20;;;;;;5092519;28;20057;-68
2021/04/29 09:28:53;;;;;;;6.07;2.17;;;20.40;30.20;;;;;;5093665;28;20032;-66
2021/04/29 09:31:25;;;;;;;5.45;2.08;;;20.40;30.20;;;;;;5093277;28;20532;-66
2021/04/29 09:33:57;;;;;;;6.90;2.17;;;20.40;30.30;;;;;;5092180;28;20523;-66
2021/04/29 09:36:28;;;;;;;5.53;2.40;;;20.30;30.40;;;;;;5092208;28;20111;-67
2021/04/29 09:39:00;;;;;;;6.88;2.72;;;20.30;30.40;;;;;;5092878;28;20054;-65
2021/04/29 09:41:32;;;;;;;7.50;2.47;;;20.40;30.40;;;;;;5091429;28;20031;-66
2021/04/29 09:44:00;;;;;;;6.88;2.17;;;20.40;30.40;;;;;;5091425;28;20020;-65
2021/04/29 09:47:00;;;;;;;4.30;2.22;;;20.30;30.40;;;;;;5090816;28;20035;-67
2021/04/29 09:49:35;;;;;;;4.47;1.90;;;20.40;30.40;;;;;;5092713;28;20028;-64
2021/04/29 09:52:15;;;;;;;5.80;2.17;;;20.40;30.40;;;;;;5091915;28;20073;-64
2021/04/29 09:54:41;;;;;;;4.82;2.47;;;20.40;30.50;;;;;;5094755;28;20027;-67
2021/04/29 09:57:09;;;;;;;5.28;2.22;;;20.40;30.50;;;;;;5097349;28;20024;-67
2021/04/29 09:59:41;;;;;;;7.50;2.22;;;20.40;30.50;;;;;;5093659;28;20020;-65
2021/04/29 10:02:09;;;;;;;5.45;2.40;;;20.40;30.60;;;;;;5094493;28;20031;-63
2021/04/29 10:04:38;;;;;;;7.28;2.45;;;20.40;30.70;;;;;;5093764;28;20030;-64
2021/04/29 10:07:04;;;;;;;4.90;2.05;;;20.40;30.60;;;;;;5096307;28;20380;-65
2021/04/29 10:09:32;;;;;;;6.28;2.33;;;20.40;30.70;;;;;;5095918;28;20031;-66
2021/04/29 10:12:06;;;;;;;6.72;2.63;;;20.40;31.00;;;;;;5094563;28;20062;-66
2021/04/29 10:14:38;;;;;;;5.78;2.30;;;20.40;31.10;;;;;;5095058;28;20016;-67
2021/04/29 10:17:05;;;;;;;5.70;2.15;;;20.40;30.80;;;;;;5094408;28;20028;-66
2021/04/29 10:19:34;;;;;;;8.23;2.60;;;20.40;30.80;;;;;;5093254;28;20058;-64
2021/04/29 10:22:00;;;;;;;5.18;2.13;;;20.40;30.70;;;;;;5096216;28;20048;-65
2021/04/29 10:24:26;;;;;;;7.78;2.47;;;20.40;30.80;;;;;;5095469;28;20028;-66
2021/04/29 10:27:06;;;;;;;6.03;2.78;;;20.40;30.80;;;;;;5095919;28;20036;-64
2021/04/29 10:29:32;;;;;;;8.10;2.47;;;20.40;30.90;;;;;;5095639;28;20034;-63
2021/04/29 10:31:59;;;;;;;5.05;2.22;;;20.50;30.80;;;;;;5095754;28;20548;-63
2021/04/29 10:34:43;;;;;;;5.20;2.17;;;20.50;30.90;;;;;;5095802;28;20058;-66
2021/04/29 10:37:14;;;;;;;5.20;2.33;;;20.50;30.90;;;;;;5095871;28;20507;-63
2021/04/29 10:39:51;;;;;;;9.32;2.65;;;20.50;30.90;;;;;;5096038;28;20039;-64
2021/04/29 10:42:17;;;;;;;4.00;2.17;;;20.50;31.00;;;;;;5095746;28;20380;-64
2021/04/29 10:44:45;;;;;;;4.72;2.45;;;20.50;30.90;;;;;;5095986;28;20021;-63
2021/04/29 10:47:23;;;;;;;5.82;2.50;;;20.50;31.00;;;;;;5095742;28;20032;-64
2021/04/29 10:49:50;;;;;;;5.05;2.47;;;20.50;31.00;;;;;;5095839;28;20153;-65
2021/04/29 10:52:15;;;;;;;5.15;2.53;;;20.50;31.00;;;;;;5095834;28;20020;-64
2021/04/29 10:54:49;;;;;;;4.85;2.00;;;20.50;31.00;;;;;;5095362;28;20032;-63
2021/04/29 10:57:16;;;;;;;4.57;2.50;;;20.60;31.00;;;;;;5096468;28;20019;-63
2021/04/29 10:59:48;;;;;;;5.82;3.05;;;20.60;30.90;;;;;;5094558;28;20133;-62
2021/04/29 11:02:27;;;;;;;12.18;2.65;;;20.60;31.10;;;;;;5094912;28;20020;-62
2021/04/29 11:04:54;;;;;;;4.72;2.28;;;20.60;31.00;;;;;;5094584;28;20490;-64
2021/04/29 11:07:22;;;;;;;4.43;2.22;;;20.60;31.00;;;;;;5094539;28;20047;-62
2021/04/29 11:10:18;;;;;;;4.72;2.22;;;20.60;31.10;;;;;;5094429;28;20020;-61
2021/04/29 11:12:53;;;;;;;5.80;2.63;;;20.50;31.10;;;;;;5081947;28;20119;-62
2021/04/29 11:15:24;;;;;;;5.60;2.30;;;20.60;31.10;;;;;;5094903;28;20024;-65
2021/04/29 11:18:08;;;;;;;5.50;2.55;;;20.70;31.10;;;;;;5095136;28;20103;-63
2021/04/29 11:20:58;;;;;;;4.10;2.25;;;20.70;31.10;;;;;;5094524;28;20035;-63
2021/04/29 11:23:36;;;;;;;5.85;2.63;;;20.70;31.00;;;;;;5095256;28;20396;-63
2021/04/29 11:26:09;;;;;;;5.93;2.22;;;20.70;31.00;;;;;;5095670;28;20039;-63
2021/04/29 11:28:36;;;;;;;7.50;2.70;;;20.70;31.10;;;;;;5094773;28;20040;-63
2021/04/29 11:31:02;;;;;;;5.38;2.45;;;20.60;31.10;;;;;;5093356;28;20020;-64
2021/04/29 11:33:36;;;;;;;4.47;2.25;;;20.60;31.00;;;;;;5094465;28;20032;-62
2021/04/29 11:36:19;;;;;;;6.00;2.53;;;20.60;31.10;;;;;;5093866;28;20166;-63
2021/04/29 11:38:59;;;;;;;5.78;2.30;;;20.70;31.00;;;;;;5094595;28;20071;-64
2021/04/29 11:41:27;;;;;;;4.75;2.10;;;20.60;31.00;;;;;;5093774;28;20012;-63
2021/04/29 11:43:55;;;;;;;8.88;2.40;;;20.70;31.00;;;;;;5094806;28;20028;-63
2021/04/29 11:46:22;;;;;;;4.10;2.10;;;20.80;30.90;;;;;;5094478;28;20024;-63
2021/04/29 11:49:00;;;;;;;4.72;2.25;;;20.80;30.90;;;;;;5094710;28;20111;-63
2021/04/29 11:51:28;;;;;;;6.85;2.08;;;20.70;30.90;;;;;;5095011;28;20027;-63
2021/04/29 11:53:59;;;;;;;4.30;2.38;;;20.80;30.90;;;;;;5094754;28;20024;-63
2021/04/29 11:56:35;;;;;;;4.45;1.98;;;20.70;30.90;;;;;;5094754;28;20075;-63
2021/04/29 11:59:03;;;;;;;4.93;2.45;;;20.70;31.00;;;;;;5094835;28;20028;-63
2021/04/29 12:01:29;;;;;;;3.95;2.10;;;20.60;31.00;;;;;;5094496;28;20025;-63
2021/04/29 12:03:55;;;;;;;4.65;2.10;;;20.60;31.00;;;;;;5094595;28;20031;-63
2021/04/29 12:06:22;;;;;;;4.50;2.08;;;20.60;31.10;;;;;;5094657;28;20077;-63
2021/04/29 12:08:48;;;;;;;5.50;2.35;;;20.60;31.10;;;;;;5107307;28;20023;-62
2021/04/29 12:11:14;;;;;;;4.25;2.03;;;20.50;31.10;;;;;;5114771;28;20045;-63
2021/04/29 12:13:42;;;;;;;3.92;2.13;;;20.60;31.20;;;;;;5113714;28;20055;-64
2021/04/29 12:16:29;;;;;;;4.05;2.00;;;20.50;31.20;;;;;;5113554;28;20096;-65
2021/04/29 12:18:58;;;;;;;4.10;2.00;;;20.50;31.10;;;;;;5113892;28;20032;-65
2021/04/29 12:21:27;;;;;;;7.55;2.33;;;20.50;31.10;;;;;;5114010;28;20122;-64
2021/04/29 12:23:58;;;;;;;5.05;2.00;;;20.60;31.10;;;;;;5113603;28;20527;-65
2021/04/29 12:26:41;;;;;;;7.25;2.03;;;20.60;31.10;;;;;;5114068;28;20038;-65
2021/04/29 12:29:08;;;;;;;4.75;2.00;;;20.60;31.10;;;;;;5114603;28;20039;-65
2021/04/29 12:31:35;;;;;;;3.53;1.65;;;20.50;31.10;;;;;;5114238;28;20051;-66
2021/04/29 12:34:14;;;;;;;4.28;1.75;;;20.70;31.10;;;;;;5114304;27;20058;-65
2021/04/29 12:37:01;;;;;;;4.43;1.90;;;20.60;31.10;;;;;;5112566;28;20107;-64
2021/04/29 12:39:29;;;;;;;3.58;1.90;;;20.70;31.00;;;;;;5113487;28;20039;-65
2021/04/29 12:42:00;;;;;;;5.57;2.00;;;20.80;31.00;;;;;;5113614;28;20463;-64
2021/04/29 12:44:37;;;;;;;3.42;1.83;;;20.90;30.90;;;;;;5106550;28;20024;-64
2021/04/29 12:47:03;;;;;;;5.72;2.15;;;20.90;30.90;;;;;;5081416;28;20522;-64
2021/04/29 12:49:29;;;;;;;7.38;2.47;;;20.90;30.90;;;;;;5113695;28;20085;-65
2021/04/29 12:52:27;;;;;;;4.18;1.80;;;20.90;30.90;;;;;;5113610;28;20062;-65